Time,TemperatureF,DewpointF,PressureIn,WindDirection,WindDirectionDegrees,WindSpeedMPH,WindSpeedGustMPH,Humidity,HourlyPrecipIn,Conditions,Clouds,dailyrainin,SoftwareType,DateUTC
2013-05-19 00:00:00,58.9,43.2,30.03,North,353,3.0,16.0,56,0.00,,,-99.99,Weather View 32 v60,2013-05-19 07:00:00,
2013-05-19 00:05:00,58.7,43.5,30.03,North,1,3.0,15.0,57,0.00,,,-99.99,Weather View 32 v60,2013-05-19 07:05:00,
2013-05-19 00:10:00,58.5,43.3,30.03,North,352,2.0,15.0,57,0.00,,,-99.99,Weather View 32 v60,2013-05-19 07:10:00,
2013-05-19 00:15:00,58.5,43.3,30.03,NNE,19,3.0,15.0,57,0.00,,,-99.99,Weather View 32 v60,2013-05-19 07:15:00,
2013-05-19 00:20:00,58.4,43.2,30.03,North,4,2.0,15.0,57,0.00,,,-99.99,Weather View 32 v60,2013-05-19 07:20:00,
2013-05-19 00:25:00,58.5,43.3,30.03,NNE,14,2.0,15.0,57,0.00,,,-99.99,Weather View 32 v60,2013-05-19 07:25:00,
2013-05-19 00:30:00,58.6,43.4,30.03,North,350,2.0,15.0,57,0.00,,,-99.99,Weather View 32 v60,2013-05-19 07:30:00,
2013-05-19 00:35:00,58.6,43.4,30.02,NNW,346,2.0,15.0,57,0.00,,,-99.99,Weather View 32 v60,2013-05-19 07:35:00,
2013-05-19 00:40:00,58.6,43.4,30.02,NNW,333,2.0,15.0,57,0.00,,,-99.99,Weather View 32 v60,2013-05-19 07:40:00,
2013-05-19 00:45:00,58.6,43.4,30.02,NNE,14,2.0,15.0,57,0.00,,,-99.99,Weather View 32 v60,2013-05-19 07:45:00,
2013-05-19 00:50:00,58.7,43.5,30.02,North,356,2.0,14.0,57,0.00,,,-99.99,Weather View 32 v60,2013-05-19 07:50:00,
2013-05-19 00:55:00,58.8,43.6,30.02,North,3,2.0,8.0,57,0.00,,,-99.99,Weather View 32 v60,2013-05-19 07:55:00,
2013-05-19 01:00:00,58.8,43.6,30.02,NW,317,2.0,8.0,57,0.00,,,-99.99,Weather View 32 v60,2013-05-19 08:00:00,
2013-05-19 01:05:00,58.7,43.5,30.02,North,359,1.0,8.0,57,0.00,,,-99.99,Weather View 32 v60,2013-05-19 08:05:00,
2013-05-19 01:10:00,58.5,43.3,30.02,NE,43,3.0,8.0,57,0.00,,,-99.99,Weather View 32 v60,2013-05-19 08:10:00,
2013-05-19 01:15:00,58.4,43.2,30.02,NW,325,2.0,8.0,57,0.00,,,-99.99,Weather View 32 v60,2013-05-19 08:15:00,
2013-05-19 01:20:00,58.4,43.2,30.03,North,1,3.0,8.0,57,0.00,,,-99.99,Weather View 32 v60,2013-05-19 08:20:00,
2013-05-19 01:25:00,58.4,43.2,30.03,North,353,2.0,8.0,57,0.00,,,-99.99,Weather View 32 v60,2013-05-19 08:25:00,
2013-05-19 01:30:00,58.4,43.2,30.02,North,11,5.0,8.0,57,0.00,,,-99.99,Weather View 32 v60,2013-05-19 08:30:00,
2013-05-19 01:35:00,58.3,43.1,30.03,WNW,303,4.0,8.0,57,0.00,,,-99.99,Weather View 32 v60,2013-05-19 08:35:00,
2013-05-19 01:40:00,58.3,43.1,30.03,North,358,1.0,8.0,57,0.00,,,-99.99,Weather View 32 v60,2013-05-19 08:40:00,
2013-05-19 01:45:00,58.2,43.0,30.03,NW,323,2.0,8.0,57,0.00,,,-99.99,Weather View 32 v60,2013-05-19 08:45:00,
2013-05-19 01:50:00,58.0,42.8,30.03,NW,326,2.0,8.0,57,0.00,,,-99.99,Weather View 32 v60,2013-05-19 08:50:00,
2013-05-19 01:55:00,58.0,42.8,30.03,NNW,348,3.0,7.0,57,0.00,,,-99.99,Weather View 32 v60,2013-05-19 08:55:00,
2013-05-19 02:00:00,57.8,43.1,30.03,North,10,1.0,6.0,58,0.00,,,-99.99,Weather View 32 v60,2013-05-19 09:00:00,
2013-05-19 02:05:00,57.6,42.9,30.03,NNE,30,2.0,6.0,58,0.00,,,-99.99,Weather View 32 v60,2013-05-19 09:05:00,
2013-05-19 02:10:00,57.4,43.2,30.03,NNE,18,2.0,6.0,59,0.00,,,-99.99,Weather View 32 v60,2013-05-19 09:10:00,
2013-05-19 02:15:00,57.1,42.9,30.03,NE,56,1.0,6.0,59,0.00,,,-99.99,Weather View 32 v60,2013-05-19 09:15:00,
2013-05-19 02:20:00,57.1,42.9,30.03,North,356,1.0,6.0,59,0.00,,,-99.99,Weather View 32 v60,2013-05-19 09:20:00,
2013-05-19 02:25:00,57.2,43.0,30.04,NNE,26,2.0,6.0,59,0.00,,,-99.99,Weather View 32 v60,2013-05-19 09:25:00,
2013-05-19 02:30:00,57.3,43.1,30.04,North,350,2.0,6.0,59,0.00,,,-99.99,Weather View 32 v60,2013-05-19 09:30:00,
2013-05-19 02:40:00,57.2,43.0,30.04,West,275,2.0,6.0,59,0.00,,,-99.99,Weather View 32 v60,2013-05-19 09:40:00,
2013-05-19 02:45:00,57.2,43.0,30.04,NNE,23,2.0,6.0,59,0.00,,,-99.99,Weather View 32 v60,2013-05-19 09:45:00,
2013-05-19 02:50:00,57.2,43.0,30.04,North,1,2.0,6.0,59,0.00,,,-99.99,Weather View 32 v60,2013-05-19 09:50:00,
2013-05-19 02:55:00,57.1,43.3,30.04,North,356,2.0,6.0,60,0.00,,,-99.99,Weather View 32 v60,2013-05-19 09:55:00,
2013-05-19 03:00:00,57.1,43.3,30.04,NNE,25,1.0,6.0,60,0.00,,,-99.99,Weather View 32 v60,2013-05-19 10:00:00,
2013-05-19 03:20:00,56.9,43.1,30.05,NNE,19,2.0,6.0,60,0.00,,,-99.99,Weather View 32 v60,2013-05-19 10:20:00,
2013-05-19 03:25:00,56.9,43.1,30.05,NNE,25,2.0,9.0,60,0.00,,,-99.99,Weather View 32 v60,2013-05-19 10:25:00,
2013-05-19 03:30:00,57.0,43.2,30.05,NNW,348,2.0,9.0,60,0.00,,,-99.99,Weather View 32 v60,2013-05-19 10:30:00,
2013-05-19 03:38:00,57.3,43.1,30.04,North,350,0.0,6.0,59,0.00,,,-99.99,Weather View 32 v60,2013-05-19 10:38:00,
2013-05-19 03:40:00,57.0,43.2,30.05,North,3,2.0,11.0,60,0.00,,,-99.99,Weather View 32 v60,2013-05-19 10:40:00,
2013-05-19 03:50:00,56.9,43.1,30.05,North,350,2.0,11.0,60,0.00,,,-99.99,Weather View 32 v60,2013-05-19 10:50:00,
2013-05-19 03:55:00,56.8,43.0,30.05,NNE,24,3.0,11.0,60,0.00,,,-99.99,Weather View 32 v60,2013-05-19 10:55:00,
2013-05-19 04:09:00,57.1,43.3,30.04,NNE,23,1.0,6.0,60,0.00,,,-99.99,Weather View 32 v60,2013-05-19 11:09:00,
2013-05-19 04:10:00,56.3,43.0,30.05,North,349,3.0,11.0,61,0.00,,,-99.99,Weather View 32 v60,2013-05-19 11:10:00,
2013-05-19 04:14:00,57.0,43.2,30.04,NNW,342,2.0,6.0,60,0.00,,,-99.99,Weather View 32 v60,2013-05-19 11:14:00,
2013-05-19 04:15:00,56.1,43.2,30.05,NNW,340,0.0,11.0,62,0.00,,,-99.99,Weather View 32 v60,2013-05-19 11:15:00,
2013-05-19 04:19:00,56.9,43.1,30.05,North,11,2.0,6.0,60,0.00,,,-99.99,Weather View 32 v60,2013-05-19 11:19:00,
2013-05-19 04:20:00,55.8,42.9,30.05,NW,317,4.0,11.0,62,0.00,,,-99.99,Weather View 32 v60,2013-05-19 11:20:00,
2013-05-19 04:24:00,56.9,43.1,30.05,NNE,19,2.0,6.0,60,0.00,,,-99.99,Weather View 32 v60,2013-05-19 11:24:00,
2013-05-19 04:30:00,55.5,43.1,30.06,North,8,3.0,11.0,63,0.00,,,-99.99,Weather View 32 v60,2013-05-19 11:30:00,
2013-05-19 04:35:00,55.2,43.2,30.06,NNE,30,2.0,10.0,64,0.00,,,-99.99,Weather View 32 v60,2013-05-19 11:35:00,
2013-05-19 04:39:00,57.0,43.2,30.05,NE,45,3.0,11.0,60,0.00,,,-99.99,Weather View 32 v60,2013-05-19 11:39:00,
2013-05-19 04:49:00,57.0,43.2,30.05,NNE,21,2.0,11.0,60,0.00,,,-99.99,Weather View 32 v60,2013-05-19 11:49:00,
2013-05-19 04:50:00,54.8,43.2,30.06,NE,34,2.0,8.0,65,0.00,,,-99.99,Weather View 32 v60,2013-05-19 11:50:00,
2013-05-19 04:55:00,54.9,42.9,30.06,NE,51,3.0,8.0,64,0.00,,,-99.99,Weather View 32 v60,2013-05-19 11:55:00,
2013-05-19 05:00:00,55.0,43.0,30.06,North,350,1.0,8.0,64,0.00,,,-99.99,Weather View 32 v60,2013-05-19 12:00:00,
2013-05-19 05:04:00,56.5,43.2,30.05,North,352,2.0,11.0,61,0.00,,,-99.99,Weather View 32 v60,2013-05-19 12:04:00,
2013-05-19 05:05:00,54.8,42.8,30.06,ENE,65,4.0,8.0,64,0.00,,,-99.99,Weather View 32 v60,2013-05-19 12:05:00,
2013-05-19 05:09:00,56.3,43.0,30.05,North,6,2.0,11.0,61,0.00,,,-99.99,Weather View 32 v60,2013-05-19 12:09:00,
2013-05-19 05:10:00,54.5,43.0,30.06,NE,51,4.0,8.0,65,0.00,,,-99.99,Weather View 32 v60,2013-05-19 12:10:00,
2013-05-19 05:15:00,54.2,43.1,30.06,NNE,19,2.0,8.0,66,0.00,,,-99.99,Weather View 32 v60,2013-05-19 12:15:00,
2013-05-19 05:25:00,54.1,43.4,30.07,North,4,2.0,8.0,67,0.00,,,-99.99,Weather View 32 v60,2013-05-19 12:25:00,
2013-05-19 05:29:00,55.8,42.9,30.06,NNE,16,2.0,11.0,62,0.00,,,-99.99,Weather View 32 v60,2013-05-19 12:29:00,
2013-05-19 05:30:00,54.4,43.3,30.07,NE,39,2.0,8.0,66,0.00,,,-99.99,Weather View 32 v60,2013-05-19 12:30:00,
2013-05-19 05:35:00,54.8,43.6,30.07,NNE,18,3.0,8.0,66,0.00,,,-99.99,Weather View 32 v60,2013-05-19 12:35:00,
2013-05-19 05:40:00,55.2,43.6,30.06,NNE,21,3.0,8.0,65,0.00,,,-99.99,Weather View 32 v60,2013-05-19 12:40:00,
2013-05-19 05:43:00,54.8,43.2,30.06,NE,41,2.0,9.0,65,0.00,,,-99.99,Weather View 32 v60,2013-05-19 12:43:00,
2013-05-19 05:45:00,55.9,43.9,30.07,NE,53,3.0,8.0,64,0.00,,,-99.99,Weather View 32 v60,2013-05-19 12:45:00,
2013-05-19 05:48:00,54.7,43.1,30.06,North,354,1.0,9.0,65,0.00,,,-99.99,Weather View 32 v60,2013-05-19 12:48:00,
2013-05-19 05:55:00,57.4,44.5,30.07,NNW,339,2.0,8.0,62,0.00,,,-99.99,Weather View 32 v60,2013-05-19 12:55:00,
2013-05-19 06:00:00,58.0,44.2,30.07,NNE,22,1.0,8.0,60,0.00,,,-99.99,Weather View 32 v60,2013-05-19 13:00:00,
2013-05-19 06:05:00,58.4,44.5,30.07,ENE,69,5.0,8.0,60,0.00,,,-99.99,Weather View 32 v60,2013-05-19 13:05:00,
2013-05-19 06:10:00,58.8,44.5,30.07,NE,42,2.0,8.0,59,0.00,,,-99.99,Weather View 32 v60,2013-05-19 13:10:00,
2013-05-19 06:15:00,59.4,44.6,30.07,NNE,28,3.0,8.0,58,0.00,,,-99.99,Weather View 32 v60,2013-05-19 13:15:00,
2013-05-19 06:20:00,59.8,44.5,30.07,NNE,33,3.0,8.0,57,0.00,,,-99.99,Weather View 32 v60,2013-05-19 13:20:00,
2013-05-19 06:23:00,53.9,43.2,30.07,North,3,3.0,8.0,67,0.00,,,-99.99,Weather View 32 v60,2013-05-19 13:23:00,
2013-05-19 06:28:00,54.1,43.4,30.07,North,4,2.0,8.0,67,0.00,,,-99.99,Weather View 32 v60,2013-05-19 13:28:00,
2013-05-19 06:30:00,60.4,44.6,30.08,NE,40,5.0,8.0,56,0.00,,,-99.99,Weather View 32 v60,2013-05-19 13:30:00,
2013-05-19 06:35:00,60.7,44.9,30.08,NE,46,3.0,8.0,56,0.00,,,-99.99,Weather View 32 v60,2013-05-19 13:35:00,
2013-05-19 06:40:00,61.0,44.7,30.08,NE,36,5.0,8.0,55,0.00,,,-99.99,Weather View 32 v60,2013-05-19 13:40:00,
2013-05-19 06:45:00,61.8,45.4,30.08,North,355,3.0,8.0,55,0.00,,,-99.99,Weather View 32 v60,2013-05-19 13:45:00,
2013-05-19 06:50:00,62.2,45.3,30.08,North,10,4.0,8.0,54,0.00,,,-99.99,Weather View 32 v60,2013-05-19 13:50:00,
2013-05-19 06:54:00,56.7,44.2,30.07,NE,35,3.0,8.0,63,0.00,,,-99.99,Weather View 32 v60,2013-05-19 13:54:00,
2013-05-19 07:00:00,63.4,45.9,30.08,NE,34,1.0,8.0,53,0.00,,,-99.99,Weather View 32 v60,2013-05-19 14:00:00,
2013-05-19 07:10:00,65.2,45.5,30.08,North,7,2.0,8.0,49,0.00,,,-99.99,Weather View 32 v60,2013-05-19 14:10:00,
2013-05-19 07:15:00,65.4,45.7,30.07,NNE,21,2.0,8.0,49,0.00,,,-99.99,Weather View 32 v60,2013-05-19 14:15:00,
2013-05-19 07:20:00,66.1,45.8,30.07,NNE,24,4.0,8.0,48,0.00,,,-99.99,Weather View 32 v60,2013-05-19 14:20:00,
2013-05-19 07:25:00,66.4,45.5,30.07,NNW,342,2.0,8.0,47,0.00,,,-99.99,Weather View 32 v60,2013-05-19 14:25:00,
2013-05-19 07:29:00,60.4,45.1,30.08,NE,37,2.0,8.0,57,0.00,,,-99.99,Weather View 32 v60,2013-05-19 14:29:00,
2013-05-19 07:30:00,66.9,44.8,30.07,NW,318,2.0,7.0,45,0.00,,,-99.99,Weather View 32 v60,2013-05-19 14:30:00,
2013-05-19 07:35:00,66.9,44.8,30.07,NNW,345,0.0,7.0,45,0.00,,,-99.99,Weather View 32 v60,2013-05-19 14:35:00,
2013-05-19 07:40:00,67.6,45.4,30.07,NW,320,1.0,7.0,45,0.00,,,-99.99,Weather View 32 v60,2013-05-19 14:40:00,
2013-05-19 07:45:00,67.5,44.8,30.07,NNW,331,2.0,8.0,44,0.00,,,-99.99,Weather View 32 v60,2013-05-19 14:45:00,
2013-05-19 07:50:00,66.9,44.8,30.07,NW,318,4.0,8.0,45,0.00,,,-99.99,Weather View 32 v60,2013-05-19 14:50:00,
2013-05-19 07:55:00,67.2,45.1,30.07,NNW,338,1.0,8.0,45,0.00,,,-99.99,Weather View 32 v60,2013-05-19 14:55:00,
2013-05-19 07:59:00,62.7,45.3,30.08,NNE,12,1.0,8.0,53,0.00,,,-99.99,Weather View 32 v60,2013-05-19 14:59:00,
2013-05-19 08:00:00,67.9,45.1,30.07,WNW,283,2.0,8.0,44,0.00,,,-99.99,Weather View 32 v60,2013-05-19 15:00:00,
2013-05-19 08:09:00,64.7,46.1,30.08,NNW,348,2.0,8.0,51,0.00,,,-99.99,Weather View 32 v60,2013-05-19 15:09:00,
2013-05-19 08:10:00,68.5,44.4,30.07,NW,305,6.0,9.0,42,0.00,,,-99.99,Weather View 32 v60,2013-05-19 15:10:00,
2013-05-19 08:20:00,69.5,45.3,30.07,NNW,339,1.0,9.0,42,0.00,,,-99.99,Weather View 32 v60,2013-05-19 15:20:00,
2013-05-19 08:25:00,71.2,46.2,30.07,NW,313,3.0,9.0,41,0.00,,,-99.99,Weather View 32 v60,2013-05-19 15:25:00,
2013-05-19 08:30:00,70.7,43.8,30.07,WNW,297,5.0,10.0,38,0.00,,,-99.99,Weather View 32 v60,2013-05-19 15:30:00,
2013-05-19 08:50:00,73.6,45.6,30.06,WNW,299,5.0,10.0,37,0.00,,,-99.99,Weather View 32 v60,2013-05-19 15:50:00,
2013-05-19 09:05:00,73.7,45.0,30.06,NW,322,3.0,10.0,36,0.00,,,-99.99,Weather View 32 v60,2013-05-19 16:05:00,
2013-05-19 09:08:00,68.2,44.8,30.07,NNE,31,2.0,8.0,43,0.00,,,-99.99,Weather View 32 v60,2013-05-19 16:08:00,
2013-05-19 09:19:00,68.4,45.0,30.07,North,358,1.0,9.0,43,0.00,,,-99.99,Weather View 32 v60,2013-05-19 16:19:00,
2013-05-19 09:31:00,71.2,46.2,30.07,NW,313,3.0,9.0,41,0.00,,,-99.99,Weather View 32 v60,2013-05-19 16:31:00,
2013-05-19 09:35:00,75.9,45.4,30.04,NNW,334,3.0,9.0,34,0.00,,,-99.99,Weather View 32 v60,2013-05-19 16:35:00,
2013-05-19 09:39:00,69.8,45.0,30.07,North,356,2.0,10.0,41,0.00,,,-99.99,Weather View 32 v60,2013-05-19 16:39:00,
2013-05-19 09:40:00,76.3,45.0,30.04,NW,319,2.0,9.0,33,0.00,,,-99.99,Weather View 32 v60,2013-05-19 16:40:00,
2013-05-19 09:44:00,71.0,44.7,30.06,NNW,329,6.0,10.0,39,0.00,,,-99.99,Weather View 32 v60,2013-05-19 16:44:00,
2013-05-19 09:45:00,75.5,44.3,30.04,North,350,4.0,9.0,33,0.00,,,-99.99,Weather View 32 v60,2013-05-19 16:45:00,
2013-05-19 09:50:00,76.8,44.6,30.04,NNW,342,1.0,9.0,32,0.00,,,-99.99,Weather View 32 v60,2013-05-19 16:50:00,
2013-05-19 09:59:00,72.3,45.2,30.06,NNW,346,2.0,10.0,38,0.00,,,-99.99,Weather View 32 v60,2013-05-19 16:59:00,
2013-05-19 10:14:00,74.1,45.4,30.05,North,7,1.0,10.0,36,0.00,,,-99.99,Weather View 32 v60,2013-05-19 17:14:00,
2013-05-19 10:19:00,75.1,45.5,30.05,NNW,332,1.0,10.0,35,0.00,,,-99.99,Weather View 32 v60,2013-05-19 17:19:00,
2013-05-19 10:24:00,75.4,45.0,30.05,NW,318,5.0,10.0,34,0.00,,,-99.99,Weather View 32 v60,2013-05-19 17:24:00,
2013-05-19 10:25:00,79.6,41.6,30.03,NW,323,8.0,10.0,26,0.00,,,-99.99,Weather View 32 v60,2013-05-19 17:25:00,
2013-05-19 10:29:00,73.7,44.3,30.05,North,3,2.0,10.0,35,0.00,,,-99.99,Weather View 32 v60,2013-05-19 17:29:00,
2013-05-19 10:30:00,79.8,42.7,30.03,North,2,2.0,10.0,27,0.00,,,-99.99,Weather View 32 v60,2013-05-19 17:30:00,
2013-05-19 10:34:00,75.0,44.6,30.04,NNW,343,3.0,9.0,34,0.00,,,-99.99,Weather View 32 v60,2013-05-19 17:34:00,
2013-05-19 10:40:00,80.5,41.3,30.02,West,266,4.0,10.0,25,0.00,,,-99.99,Weather View 32 v60,2013-05-19 17:40:00,
2013-05-19 10:45:00,80.3,41.2,30.02,North,356,2.0,10.0,25,0.00,,,-99.99,Weather View 32 v60,2013-05-19 17:45:00,
2013-05-19 10:50:00,81.1,40.8,30.02,NW,324,3.0,10.0,24,0.00,,,-99.99,Weather View 32 v60,2013-05-19 17:50:00,
2013-05-19 10:55:00,82.5,39.7,30.02,North,349,4.0,10.0,22,0.00,,,-99.99,Weather View 32 v60,2013-05-19 17:55:00,
2013-05-19 10:59:00,77.0,43.1,30.04,West,263,3.0,9.0,30,0.00,,,-99.99,Weather View 32 v60,2013-05-19 17:59:00,
2013-05-19 11:04:00,77.3,44.2,30.03,NNW,339,1.0,9.0,31,0.00,,,-99.99,Weather View 32 v60,2013-05-19 18:04:00,
2013-05-19 11:09:00,78.4,43.4,30.03,WNW,295,6.0,9.0,29,0.00,,,-99.99,Weather View 32 v60,2013-05-19 18:09:00,
2013-05-19 11:10:00,81.5,38.9,30.01,WNW,302,5.0,10.0,22,0.00,,,-99.99,Weather View 32 v60,2013-05-19 18:10:00,
2013-05-19 11:19:00,78.3,42.4,30.03,North,351,1.0,9.0,28,0.00,,,-99.99,Weather View 32 v60,2013-05-19 18:19:00,
2013-05-19 11:20:00,85.5,38.4,30.00,West,270,3.0,10.0,19,0.00,,,-99.99,Weather View 32 v60,2013-05-19 18:20:00,
2013-05-19 11:24:00,79.3,41.3,30.03,NNW,339,4.0,9.0,26,0.00,,,-99.99,Weather View 32 v60,2013-05-19 18:24:00,
2013-05-19 11:25:00,84.2,37.4,30.00,NNW,327,5.0,10.0,19,0.00,,,-99.99,Weather View 32 v60,2013-05-19 18:25:00,
2013-05-19 11:30:00,84.0,37.2,30.00,NNW,346,1.0,10.0,19,0.00,,,-99.99,Weather View 32 v60,2013-05-19 18:30:00,
2013-05-19 11:35:00,85.1,38.1,30.00,NW,322,4.0,10.0,19,0.00,,,-99.99,Weather View 32 v60,2013-05-19 18:35:00,
2013-05-19 11:39:00,80.3,41.2,30.02,South,179,2.0,10.0,25,0.00,,,-99.99,Weather View 32 v60,2013-05-19 18:39:00,
2013-05-19 11:45:00,86.1,37.5,29.99,NE,41,3.0,10.0,18,0.00,,,-99.99,Weather View 32 v60,2013-05-19 18:45:00,
2013-05-19 12:04:00,82.2,39.5,30.01,NW,321,5.0,10.0,22,0.00,,,-99.99,Weather View 32 v60,2013-05-19 19:04:00,
2013-05-19 12:05:00,84.8,35.0,29.98,WNW,284,10.0,12.0,17,0.00,,,-99.99,Weather View 32 v60,2013-05-19 19:05:00,
2013-05-19 12:19:00,83.0,40.1,30.00,NNE,20,2.0,10.0,22,0.00,,,-99.99,Weather View 32 v60,2013-05-19 19:19:00,
2013-05-19 12:25:00,87.6,32.4,29.97,NW,319,2.0,12.0,14,0.00,,,-99.99,Weather View 32 v60,2013-05-19 19:25:00,
2013-05-19 12:30:00,88.4,33.0,29.97,NNW,342,2.0,12.0,14,0.00,,,-99.99,Weather View 32 v60,2013-05-19 19:30:00,
2013-05-19 12:40:00,89.6,35.7,29.96,WNW,288,5.0,12.0,15,0.00,,,-99.99,Weather View 32 v60,2013-05-19 19:40:00,
2013-05-19 12:43:00,85.6,38.5,29.99,NE,43,2.0,10.0,19,0.00,,,-99.99,Weather View 32 v60,2013-05-19 19:43:00,
2013-05-19 12:50:00,88.6,34.9,29.96,NNW,332,4.0,12.0,15,0.00,,,-99.99,Weather View 32 v60,2013-05-19 19:50:00,
2013-05-19 12:54:00,86.0,37.4,29.99,NNW,328,3.0,10.0,18,0.00,,,-99.99,Weather View 32 v60,2013-05-19 19:54:00,
2013-05-19 12:55:00,87.0,33.6,29.96,WNW,298,8.0,12.0,15,0.00,,,-99.99,Weather View 32 v60,2013-05-19 19:55:00,
2013-05-19 12:59:00,85.6,35.7,29.98,WNW,294,5.0,10.0,17,0.00,,,-99.99,Weather View 32 v60,2013-05-19 19:59:00,
2013-05-19 13:00:00,86.0,32.8,29.95,NW,314,3.0,12.0,15,0.00,,,-99.99,Weather View 32 v60,2013-05-19 20:00:00,
2013-05-19 13:04:00,85.2,35.3,29.98,NW,318,6.0,10.0,17,0.00,,,-99.99,Weather View 32 v60,2013-05-19 20:04:00,
2013-05-19 13:13:00,84.4,36.1,29.98,NW,311,5.0,12.0,18,0.00,,,-99.99,Weather View 32 v60,2013-05-19 20:13:00,
2013-05-19 13:19:00,85.5,35.6,29.97,NE,34,2.0,12.0,17,0.00,,,-99.99,Weather View 32 v60,2013-05-19 20:19:00,
2013-05-19 13:20:00,86.6,31.6,29.94,NNW,333,3.0,13.0,14,0.00,,,-99.99,Weather View 32 v60,2013-05-19 20:20:00,
2013-05-19 13:24:00,87.0,33.6,29.97,NW,314,2.0,12.0,15,0.00,,,-99.99,Weather View 32 v60,2013-05-19 20:24:00,
2013-05-19 13:29:00,87.6,32.4,29.97,NW,319,2.0,12.0,14,0.00,,,-99.99,Weather View 32 v60,2013-05-19 20:29:00,
2013-05-19 13:30:00,86.2,31.3,29.94,NW,326,3.0,14.0,14,0.00,,,-99.99,Weather View 32 v60,2013-05-19 20:30:00,
2013-05-19 13:35:00,86.8,29.9,29.94,WNW,289,3.0,14.0,13,0.00,,,-99.99,Weather View 32 v60,2013-05-19 20:35:00,
2013-05-19 13:39:00,89.1,31.7,29.97,ENE,66,6.0,12.0,13,0.00,,,-99.99,Weather View 32 v60,2013-05-19 20:39:00,
2013-05-19 13:40:00,86.9,31.8,29.94,NNW,342,2.0,14.0,14,0.00,,,-99.99,Weather View 32 v60,2013-05-19 20:40:00,
2013-05-19 13:45:00,87.7,30.6,29.94,WNW,300,6.0,14.0,13,0.00,,,-99.99,Weather View 32 v60,2013-05-19 20:45:00,
2013-05-19 13:49:00,88.9,36.8,29.96,NNW,345,1.0,12.0,16,0.00,,,-99.99,Weather View 32 v60,2013-05-19 20:49:00,
2013-05-19 13:50:00,87.7,30.6,29.94,SSE,161,5.0,14.0,13,0.00,,,-99.99,Weather View 32 v60,2013-05-19 20:50:00,
2013-05-19 14:00:00,88.0,30.9,29.93,WNW,286,9.0,14.0,13,0.00,,,-99.99,Weather View 32 v60,2013-05-19 21:00:00,
2013-05-19 14:05:00,87.7,30.6,29.93,SW,221,5.0,14.0,13,0.00,,,-99.99,Weather View 32 v60,2013-05-19 21:05:00,
2013-05-19 14:09:00,86.1,32.9,29.95,WNW,301,4.0,13.0,15,0.00,,,-99.99,Weather View 32 v60,2013-05-19 21:09:00,
2013-05-19 14:10:00,86.9,30.0,29.93,West,259,6.0,14.0,13,0.00,,,-99.99,Weather View 32 v60,2013-05-19 21:10:00,
2013-05-19 14:15:00,87.8,30.7,29.93,WNW,292,5.0,14.0,13,0.00,,,-99.99,Weather View 32 v60,2013-05-19 21:15:00,
2013-05-19 14:19:00,86.1,31.2,29.95,WSW,254,5.0,13.0,14,0.00,,,-99.99,Weather View 32 v60,2013-05-19 21:19:00,
2013-05-19 14:20:00,87.8,34.3,29.93,West,262,6.0,14.0,15,0.00,,,-99.99,Weather View 32 v60,2013-05-19 21:20:00,
2013-05-19 14:25:00,87.1,35.3,29.92,West,260,10.0,14.0,16,0.00,,,-99.99,Weather View 32 v60,2013-05-19 21:25:00,
2013-05-19 14:29:00,86.5,31.5,29.94,WNW,300,8.0,14.0,14,0.00,,,-99.99,Weather View 32 v60,2013-05-19 21:29:00,
2013-05-19 14:35:00,85.5,34.1,29.92,SW,234,4.0,14.0,16,0.00,,,-99.99,Weather View 32 v60,2013-05-19 21:35:00,
2013-05-19 14:50:00,84.3,36.1,29.93,SSE,154,7.0,14.0,18,0.00,,,-99.99,Weather View 32 v60,2013-05-19 21:50:00,
2013-05-19 14:58:00,88.4,31.2,29.94,NW,310,7.0,14.0,13,0.00,,,-99.99,Weather View 32 v60,2013-05-19 21:58:00,
2013-05-19 15:05:00,84.3,36.1,29.92,ENE,75,8.0,14.0,18,0.00,,,-99.99,Weather View 32 v60,2013-05-19 22:05:00,
2013-05-19 15:10:00,83.9,37.1,29.92,SSE,168,9.0,16.0,19,0.00,,,-99.99,Weather View 32 v60,2013-05-19 22:10:00,
2013-05-19 15:15:00,84.0,37.2,29.92,SW,218,6.0,16.0,19,0.00,,,-99.99,Weather View 32 v60,2013-05-19 22:15:00,
2013-05-19 15:33:00,86.1,34.5,29.92,West,261,5.0,14.0,16,0.00,,,-99.99,Weather View 32 v60,2013-05-19 22:33:00,
2013-05-19 15:35:00,84.5,36.2,29.91,ENE,66,6.0,16.0,18,0.00,,,-99.99,Weather View 32 v60,2013-05-19 22:35:00,
2013-05-19 15:40:00,85.4,37.0,29.91,South,174,6.0,16.0,18,0.00,,,-99.99,Weather View 32 v60,2013-05-19 22:40:00,
2013-05-19 15:44:00,85.2,35.3,29.92,West,274,5.0,14.0,17,0.00,,,-99.99,Weather View 32 v60,2013-05-19 22:44:00,
2013-05-19 15:45:00,85.5,38.4,29.91,SE,138,6.0,16.0,19,0.00,,,-99.99,Weather View 32 v60,2013-05-19 22:45:00,
2013-05-19 15:49:00,85.1,35.3,29.93,SW,224,5.0,14.0,17,0.00,,,-99.99,Weather View 32 v60,2013-05-19 22:49:00,
2013-05-19 15:50:00,85.3,36.9,29.91,SSE,166,8.0,16.0,18,0.00,,,-99.99,Weather View 32 v60,2013-05-19 22:50:00,
2013-05-19 15:55:00,85.5,37.0,29.91,WSW,247,6.0,16.0,18,0.00,,,-99.99,Weather View 32 v60,2013-05-19 22:55:00,
2013-05-19 15:59:00,84.2,36.0,29.92,SW,225,7.0,14.0,18,0.00,,,-99.99,Weather View 32 v60,2013-05-19 22:59:00,
2013-05-19 16:00:00,85.6,37.1,29.91,South,171,10.0,16.0,18,0.00,,,-99.99,Weather View 32 v60,2013-05-19 23:00:00,
2013-05-19 16:04:00,83.9,35.7,29.92,South,172,8.0,14.0,18,0.00,,,-99.99,Weather View 32 v60,2013-05-19 23:04:00,
2013-05-19 16:05:00,85.5,38.4,29.91,SSW,211,4.0,16.0,19,0.00,,,-99.99,Weather View 32 v60,2013-05-19 23:05:00,
2013-05-19 16:15:00,85.3,36.9,29.91,SSW,211,9.0,12.0,18,0.00,,,-99.99,Weather View 32 v60,2013-05-19 23:15:00,
2013-05-19 16:24:00,84.0,35.8,29.91,South,176,8.0,16.0,18,0.00,,,-99.99,Weather View 32 v60,2013-05-19 23:24:00,
2013-05-19 16:29:00,84.4,37.5,29.91,SSE,164,8.0,16.0,19,0.00,,,-99.99,Weather View 32 v60,2013-05-19 23:29:00,
2013-05-19 16:30:00,85.1,36.7,29.90,SSW,211,7.0,12.0,18,0.00,,,-99.99,Weather View 32 v60,2013-05-19 23:30:00,
2013-05-19 16:34:00,84.4,37.5,29.91,WSW,237,8.0,16.0,19,0.00,,,-99.99,Weather View 32 v60,2013-05-19 23:34:00,
2013-05-19 16:35:00,85.3,36.9,29.90,SSW,213,4.0,12.0,18,0.00,,,-99.99,Weather View 32 v60,2013-05-19 23:35:00,
2013-05-19 17:13:00,85.6,38.5,29.90,SSW,208,6.0,15.0,19,0.00,,,-99.99,Weather View 32 v60,2013-05-20 00:13:00,
2013-05-19 17:15:00,84.4,37.5,29.90,SW,214,5.0,12.0,19,0.00,,,-99.99,Weather View 32 v60,2013-05-20 00:15:00,
2013-05-19 17:24:00,84.9,37.9,29.90,SW,231,5.0,12.0,19,0.00,,,-99.99,Weather View 32 v60,2013-05-20 00:24:00,
2013-05-19 17:29:00,84.9,36.5,29.90,SW,217,5.0,12.0,18,0.00,,,-99.99,Weather View 32 v60,2013-05-20 00:29:00,
2013-05-19 17:30:00,84.5,37.6,29.90,SW,222,4.0,12.0,19,0.00,,,-99.99,Weather View 32 v60,2013-05-20 00:30:00,
2013-05-19 17:35:00,84.3,38.7,29.90,SW,235,3.0,12.0,20,0.00,,,-99.99,Weather View 32 v60,2013-05-20 00:35:00,
2013-05-19 17:40:00,84.3,38.7,29.90,SW,229,5.0,12.0,20,0.00,,,-99.99,Weather View 32 v60,2013-05-20 00:40:00,
2013-05-19 17:44:00,85.9,37.4,29.90,SSE,162,5.0,12.0,18,0.00,,,-99.99,Weather View 32 v60,2013-05-20 00:44:00,
2013-05-19 17:45:00,84.0,38.5,29.90,SW,225,4.0,12.0,20,0.00,,,-99.99,Weather View 32 v60,2013-05-20 00:45:00,
2013-05-19 17:49:00,85.2,36.8,29.91,SSW,212,6.0,12.0,18,0.00,,,-99.99,Weather View 32 v60,2013-05-20 00:49:00,
2013-05-19 17:50:00,84.1,38.6,29.90,South,176,6.0,10.0,20,0.00,,,-99.99,Weather View 32 v60,2013-05-20 00:50:00,
2013-05-19 17:55:00,83.8,39.6,29.90,South,179,4.0,10.0,21,0.00,,,-99.99,Weather View 32 v60,2013-05-20 00:55:00,
2013-05-19 17:58:00,84.8,36.5,29.90,SSW,203,7.0,12.0,18,0.00,,,-99.99,Weather View 32 v60,2013-05-20 00:58:00,
2013-05-19 18:03:00,84.3,37.4,29.90,SSE,163,2.0,12.0,19,0.00,,,-99.99,Weather View 32 v60,2013-05-20 01:03:00,
2013-05-19 18:09:00,84.4,37.5,29.90,SSW,205,6.0,12.0,19,0.00,,,-99.99,Weather View 32 v60,2013-05-20 01:09:00,
2013-05-19 18:10:00,82.7,38.7,29.90,West,261,3.0,9.0,21,0.00,,,-99.99,Weather View 32 v60,2013-05-20 01:10:00,
2013-05-19 18:14:00,84.3,37.4,29.90,SW,220,4.0,12.0,19,0.00,,,-99.99,Weather View 32 v60,2013-05-20 01:14:00,
2013-05-19 18:23:00,84.3,37.4,29.90,SW,216,7.0,12.0,19,0.00,,,-99.99,Weather View 32 v60,2013-05-20 01:23:00,
2013-05-19 18:29:00,84.6,39.0,29.90,SW,232,4.0,12.0,20,0.00,,,-99.99,Weather View 32 v60,2013-05-20 01:29:00,
2013-05-19 18:30:00,82.5,39.7,29.91,SSE,164,2.0,9.0,22,0.00,,,-99.99,Weather View 32 v60,2013-05-20 01:30:00,
2013-05-19 18:34:00,84.5,37.6,29.90,SW,222,4.0,12.0,19,0.00,,,-99.99,Weather View 32 v60,2013-05-20 01:34:00,
2013-05-19 18:35:00,82.6,38.6,29.91,SE,135,4.0,9.0,21,0.00,,,-99.99,Weather View 32 v60,2013-05-20 01:35:00,
2013-05-19 18:40:00,82.2,39.5,29.91,SSW,210,5.0,9.0,22,0.00,,,-99.99,Weather View 32 v60,2013-05-20 01:40:00,
2013-05-19 18:45:00,81.8,40.3,29.91,SE,143,3.0,9.0,23,0.00,,,-99.99,Weather View 32 v60,2013-05-20 01:45:00,
2013-05-19 18:55:00,79.9,42.8,29.91,SSE,148,3.0,9.0,27,0.00,,,-99.99,Weather View 32 v60,2013-05-20 01:55:00,
2013-05-19 19:03:00,83.3,39.2,29.90,SSW,211,6.0,10.0,21,0.00,,,-99.99,Weather View 32 v60,2013-05-20 02:03:00,
2013-05-19 19:05:00,78.1,43.2,29.91,South,172,3.0,8.0,29,0.00,,,-99.99,Weather View 32 v60,2013-05-20 02:05:00,
2013-05-19 19:08:00,82.8,38.8,29.90,SSE,167,6.0,10.0,21,0.00,,,-99.99,Weather View 32 v60,2013-05-20 02:08:00,
2013-05-19 19:10:00,77.3,43.4,29.92,ESE,110,5.0,7.0,30,0.00,,,-99.99,Weather View 32 v60,2013-05-20 02:10:00,
2013-05-19 19:18:00,82.8,38.8,29.91,WSW,254,3.0,9.0,21,0.00,,,-99.99,Weather View 32 v60,2013-05-20 02:18:00,
2013-05-19 19:20:00,76.4,43.4,29.91,ESE,113,2.0,7.0,31,0.00,,,-99.99,Weather View 32 v60,2013-05-20 02:20:00,
2013-05-19 19:24:00,82.8,38.8,29.90,SW,217,2.0,9.0,21,0.00,,,-99.99,Weather View 32 v60,2013-05-20 02:24:00,
2013-05-19 19:29:00,82.6,38.6,29.91,West,264,3.0,9.0,21,0.00,,,-99.99,Weather View 32 v60,2013-05-20 02:29:00,
2013-05-19 19:30:00,75.5,43.5,29.92,SE,138,1.0,7.0,32,0.00,,,-99.99,Weather View 32 v60,2013-05-20 02:30:00,
2013-05-19 19:36:00,82.5,39.7,29.91,SSE,164,2.0,9.0,22,0.00,,,-99.99,Weather View 32 v60,2013-05-20 02:36:00,
2013-05-19 19:54:00,80.7,41.5,29.91,SE,137,7.0,9.0,25,0.00,,,-99.99,Weather View 32 v60,2013-05-20 02:54:00,
2013-05-19 20:00:00,73.3,44.7,29.92,East,101,2.0,7.0,36,0.00,,,-99.99,Weather View 32 v60,2013-05-20 03:00:00,
2013-05-19 20:03:00,79.0,43.0,29.91,SSE,148,5.0,9.0,28,0.00,,,-99.99,Weather View 32 v60,2013-05-20 03:03:00,
2013-05-19 20:05:00,72.5,44.7,29.92,East,92,1.0,6.0,37,0.00,,,-99.99,Weather View 32 v60,2013-05-20 03:05:00,
2013-05-19 20:10:00,71.6,44.6,29.92,East,92,2.0,5.0,38,0.00,,,-99.99,Weather View 32 v60,2013-05-20 03:10:00,
2013-05-19 20:15:00,70.8,45.2,29.92,East,90,1.0,5.0,40,0.00,,,-99.99,Weather View 32 v60,2013-05-20 03:15:00,
2013-05-19 20:18:00,76.8,43.8,29.92,South,172,2.0,7.0,31,0.00,,,-99.99,Weather View 32 v60,2013-05-20 03:18:00,
2013-05-19 20:20:00,70.3,44.8,29.93,ESE,107,0.0,4.0,40,0.00,,,-99.99,Weather View 32 v60,2013-05-20 03:20:00,
2013-05-19 20:25:00,69.8,45.0,29.93,East,90,2.0,3.0,41,0.00,,,-99.99,Weather View 32 v60,2013-05-20 03:25:00,
2013-05-19 20:29:00,76.0,43.9,29.91,ESE,105,2.0,7.0,32,0.00,,,-99.99,Weather View 32 v60,2013-05-20 03:29:00,
2013-05-19 20:30:00,69.2,45.1,29.93,East,90,1.0,3.0,42,0.00,,,-99.99,Weather View 32 v60,2013-05-20 03:30:00,
2013-05-19 20:34:00,75.5,43.5,29.92,SE,138,1.0,7.0,32,0.00,,,-99.99,Weather View 32 v60,2013-05-20 03:34:00,
2013-05-19 20:35:00,69.0,45.5,29.93,SE,131,1.0,3.0,43,0.00,,,-99.99,Weather View 32 v60,2013-05-20 03:35:00,
2013-05-19 20:39:00,75.2,44.0,29.92,SSE,161,2.0,7.0,33,0.00,,,-99.99,Weather View 32 v60,2013-05-20 03:39:00,
2013-05-19 20:40:00,69.0,46.1,29.93,SSE,154,1.0,3.0,44,0.00,,,-99.99,Weather View 32 v60,2013-05-20 03:40:00,
2013-05-19 20:45:00,68.8,45.9,29.93,SSE,154,1.0,3.0,44,0.00,,,-99.99,Weather View 32 v60,2013-05-20 03:45:00,
2013-05-19 20:49:00,74.4,44.1,29.92,ESE,107,2.0,7.0,34,0.00,,,-99.99,Weather View 32 v60,2013-05-20 03:49:00,
2013-05-19 20:50:00,68.7,46.4,29.93,SSE,154,1.0,3.0,45,0.00,,,-99.99,Weather View 32 v60,2013-05-20 03:50:00,
2013-05-19 20:54:00,74.0,44.5,29.92,SE,143,1.0,7.0,35,0.00,,,-99.99,Weather View 32 v60,2013-05-20 03:54:00,
2013-05-19 20:55:00,68.4,46.8,29.93,SSE,160,0.0,3.0,46,0.00,,,-99.99,Weather View 32 v60,2013-05-20 03:55:00,
2013-05-19 20:59:00,73.6,44.2,29.92,SSE,159,1.0,7.0,35,0.00,,,-99.99,Weather View 32 v60,2013-05-20 03:59:00,
2013-05-19 21:00:00,68.1,47.1,29.93,SSE,163,1.0,3.0,47,0.00,,,-99.99,Weather View 32 v60,2013-05-20 04:00:00,
2013-05-19 21:05:00,67.8,47.3,29.93,SSE,163,1.0,3.0,48,0.00,,,-99.99,Weather View 32 v60,2013-05-20 04:05:00,
2013-05-19 21:10:00,67.0,46.1,29.93,ESE,120,3.0,4.0,47,0.00,,,-99.99,Weather View 32 v60,2013-05-20 04:10:00,
2013-05-19 21:15:00,66.4,46.6,29.93,SSE,165,3.0,4.0,49,0.00,,,-99.99,Weather View 32 v60,2013-05-20 04:15:00,
2013-05-19 21:20:00,66.0,46.2,29.94,SE,140,1.0,4.0,49,0.00,,,-99.99,Weather View 32 v60,2013-05-20 04:20:00,
2013-05-19 21:25:00,65.7,46.5,29.93,East,92,2.0,4.0,50,0.00,,,-99.99,Weather View 32 v60,2013-05-20 04:25:00,
2013-05-19 21:30:00,65.2,46.0,29.94,NE,50,2.0,4.0,50,0.00,,,-99.99,Weather View 32 v60,2013-05-20 04:30:00,
2013-05-19 21:35:00,64.7,45.6,29.94,NNE,29,1.0,4.0,50,0.00,,,-99.99,Weather View 32 v60,2013-05-20 04:35:00,
2013-05-19 21:40:00,64.2,45.6,29.93,NW,320,1.0,4.0,51,0.00,,,-99.99,Weather View 32 v60,2013-05-20 04:40:00,
2013-05-19 21:45:00,63.7,45.7,29.93,North,5,1.0,4.0,52,0.00,,,-99.99,Weather View 32 v60,2013-05-20 04:45:00,
2013-05-19 21:50:00,63.4,45.9,29.94,NNE,25,1.0,4.0,53,0.00,,,-99.99,Weather View 32 v60,2013-05-20 04:50:00,
2013-05-19 21:55:00,63.2,45.7,29.93,NE,36,1.0,4.0,53,0.00,,,-99.99,Weather View 32 v60,2013-05-20 04:55:00,
2013-05-19 22:00:00,63.5,46.0,29.93,North,6,1.0,4.0,53,0.00,,,-99.99,Weather View 32 v60,2013-05-20 05:00:00,
2013-05-19 22:05:00,64.1,45.6,29.93,North,7,1.0,4.0,51,0.00,,,-99.99,Weather View 32 v60,2013-05-20 05:05:00,
2013-05-19 22:10:00,64.8,45.7,29.93,North,350,1.0,4.0,50,0.00,,,-99.99,Weather View 32 v60,2013-05-20 05:10:00,
2013-05-19 22:15:00,65.1,45.4,29.93,NNE,21,1.0,4.0,49,0.00,,,-99.99,Weather View 32 v60,2013-05-20 05:15:00,
2013-05-19 22:20:00,65.1,45.4,29.93,NNW,337,1.0,3.0,49,0.00,,,-99.99,Weather View 32 v60,2013-05-20 05:20:00,
2013-05-19 22:25:00,65.3,45.6,29.93,ENE,66,2.0,5.0,49,0.00,,,-99.99,Weather View 32 v60,2013-05-20 05:25:00,
2013-05-19 22:30:00,64.8,45.7,29.93,East,100,3.0,5.0,50,0.00,,,-99.99,Weather View 32 v60,2013-05-20 05:30:00,
2013-05-19 22:35:00,64.3,45.7,29.93,East,83,1.0,5.0,51,0.00,,,-99.99,Weather View 32 v60,2013-05-20 05:35:00,
2013-05-19 22:40:00,63.9,45.9,29.93,NW,323,2.0,5.0,52,0.00,,,-99.99,Weather View 32 v60,2013-05-20 05:40:00,
2013-05-19 22:45:00,63.5,45.5,29.93,NNW,333,1.0,5.0,52,0.00,,,-99.99,Weather View 32 v60,2013-05-20 05:45:00,
2013-05-19 22:50:00,63.6,45.6,29.93,ENE,65,3.0,5.0,52,0.00,,,-99.99,Weather View 32 v60,2013-05-20 05:50:00,
2013-05-19 22:55:00,63.7,45.7,29.93,NE,35,2.0,5.0,52,0.00,,,-99.99,Weather View 32 v60,2013-05-20 05:55:00,
2013-05-19 23:00:00,63.8,45.8,29.93,NE,55,2.0,5.0,52,0.00,,,-99.99,Weather View 32 v60,2013-05-20 06:00:00,
2013-05-19 23:05:00,64.3,45.7,29.93,NNE,12,2.0,5.0,51,0.00,,,-99.99,Weather View 32 v60,2013-05-20 06:05:00,
2013-05-19 23:10:00,64.6,45.5,29.93,North,9,1.0,5.0,50,0.00,,,-99.99,Weather View 32 v60,2013-05-20 06:10:00,
2013-05-19 23:15:00,64.7,45.6,29.93,North,8,2.0,5.0,50,0.00,,,-99.99,Weather View 32 v60,2013-05-20 06:15:00,
2013-05-19 23:20:00,64.7,45.6,29.93,North,1,2.0,5.0,50,0.00,,,-99.99,Weather View 32 v60,2013-05-20 06:20:00,
2013-05-19 23:25:00,64.7,45.6,29.93,NW,322,1.0,5.0,50,0.00,,,-99.99,Weather View 32 v60,2013-05-20 06:25:00,
2013-05-19 23:30:00,64.7,45.6,29.93,NNE,20,1.0,5.0,50,0.00,,,-99.99,Weather View 32 v60,2013-05-20 06:30:00,
2013-05-19 23:35:00,64.6,45.5,29.93,ENE,68,2.0,5.0,50,0.00,,,-99.99,Weather View 32 v60,2013-05-20 06:35:00,
2013-05-19 23:40:00,64.4,45.3,29.93,NNW,344,1.0,5.0,50,0.00,,,-99.99,Weather View 32 v60,2013-05-20 06:40:00,
2013-05-19 23:45:00,64.3,45.2,29.92,NNE,33,2.0,5.0,50,0.00,,,-99.99,Weather View 32 v60,2013-05-20 06:45:00,
2013-05-19 23:50:00,64.2,45.6,29.93,NNE,22,2.0,5.0,51,0.00,,,-99.99,Weather View 32 v60,2013-05-20 06:50:00,
2013-05-19 23:55:00,64.1,45.6,29.92,North,7,3.0,5.0,51,0.00,,,-99.99,Weather View 32 v60,2013-05-20 06:55:00,